GMME/RBA METAR and TAF weather

Enter ICAO airport designator
Station Type Date Time Source
GMME METAR 2020/01/23 09:00 UTC NOAA

GMME 230900Z 18009KT 6000 FEW015 SCT023 BKN070 13/08 Q1016 NOSIG


Station Type Date Time Source
GMME Decoded METAR 2020/01/23 09:00 UTC NOAA

Rabat-Sale, Morocco (GMME) 34-03N 006-46W 75M
Jan 23, 2020 - 04:00 AM EST / 2020.01.23 0900 UTC
Wind: from the S (180 degrees) at 10 MPH (9 KT):0
Visibility: 3 mile(s):0
Sky conditions: mostly cloudy
Temperature: 55 F (13 C)
Dew Point: 46 F (8 C)
Relative Humidity: 71%
Pressure (altimeter): 30.00 in. Hg (1016 hPa)
ob: GMME 230900Z 18009KT 6000 FEW015 SCT023 BKN070 13/08 Q1016 NOSIG
cycle: 9

Station Type Date Time Source
GMME TAF 2020/01/23 06:18 UTC NOAA

TAF GMME 230500Z 2306/2412 18008KT 6000 SCT013 BKN020
TEMPO 2311/2320 18016G32KT 5000 RA SCT013TCU BKN020 OVC026

Example: see airport list